createdAt,value
2018-10-07T00:01:37.647Z,2.23
2018-10-07T00:04:06.039Z,2.40
2018-10-07T00:06:34.448Z,3.60
2018-10-07T00:09:03.472Z,2.67
2018-10-07T00:11:31.847Z,3.40
2018-10-07T00:14:00.303Z,2.03
2018-10-07T00:16:28.803Z,2.53
2018-10-07T00:18:57.218Z,2.50
2018-10-07T00:21:25.624Z,2.60
2018-10-07T00:23:54.837Z,2.23
2018-10-07T00:26:23.294Z,4.10
2018-10-07T00:28:51.664Z,2.33
2018-10-07T00:31:20.078Z,2.40
2018-10-07T00:33:48.467Z,2.60
2018-10-07T00:36:16.991Z,3.47
2018-10-07T00:38:45.340Z,2.60
2018-10-07T00:41:13.740Z,2.03
2018-10-07T00:43:42.101Z,2.17
2018-10-07T00:46:10.476Z,2.00
2018-10-07T00:48:38.933Z,1.80
2018-10-07T00:51:07.404Z,1.60
2018-10-07T00:53:35.771Z,1.60
2018-10-07T00:56:04.141Z,3.33
2018-10-07T00:58:32.582Z,1.70
2018-10-07T01:01:01.056Z,1.80
2018-10-07T01:03:29.375Z,2.00
2018-10-07T01:05:57.739Z,1.90
2018-10-07T01:08:26.280Z,2.00
2018-10-07T01:10:54.710Z,1.60
2018-10-07T01:13:23.004Z,1.70
2018-10-07T01:15:51.488Z,2.13
2018-10-07T01:18:19.876Z,1.60
2018-10-07T01:20:48.368Z,2.60
2018-10-07T01:23:16.779Z,3.00
2018-10-07T01:25:45.248Z,2.03
2018-10-07T01:28:13.628Z,4.80
2018-10-07T01:30:41.927Z,1.40
2018-10-07T01:33:10.303Z,1.57
2018-10-07T01:35:38.706Z,1.50
2018-10-07T01:38:07.177Z,1.80
2018-10-07T01:40:35.578Z,1.93
2018-10-07T01:43:03.989Z,2.80
2018-10-07T01:45:32.292Z,2.43
2018-10-07T01:48:00.677Z,1.93
2018-10-07T01:50:29.009Z,2.20
2018-10-07T01:52:57.325Z,1.70
2018-10-07T01:55:25.747Z,2.10
2018-10-07T01:57:54.193Z,2.23
2018-10-07T02:00:22.641Z,4.67
2018-10-07T02:02:50.988Z,2.30
2018-10-07T02:05:19.448Z,2.57
2018-10-07T02:07:47.880Z,2.00
2018-10-07T02:10:16.448Z,2.23
2018-10-07T02:12:44.867Z,3.00
2018-10-07T02:15:13.295Z,2.10
2018-10-07T02:17:41.778Z,1.60
2018-10-07T02:20:10.315Z,2.00
2018-10-07T02:22:38.767Z,2.00
2018-10-07T02:25:07.708Z,1.87
2018-10-07T02:27:36.063Z,1.93
2018-10-07T02:30:04.736Z,1.70
2018-10-07T02:32:33.438Z,1.67
2018-10-07T02:35:01.860Z,5.70
2018-10-07T02:37:30.324Z,1.40
2018-10-07T02:39:58.625Z,2.57
2018-10-07T02:42:26.947Z,2.57
2018-10-07T02:44:55.419Z,1.37
2018-10-07T02:47:23.811Z,1.20
2018-10-07T02:49:52.219Z,1.50
2018-10-07T02:52:25.928Z,1.30
2018-10-07T02:54:54.473Z,1.73
2018-10-07T02:57:23.496Z,1.40
2018-10-07T02:59:52.167Z,1.10
2018-10-07T03:02:20.640Z,1.20
2018-10-07T03:04:49.079Z,1.40
2018-10-07T03:07:17.372Z,1.83
2018-10-07T03:09:45.943Z,1.60
2018-10-07T03:12:14.297Z,2.50
2018-10-07T03:14:42.716Z,2.20
2018-10-07T03:17:11.016Z,2.73
2018-10-07T03:19:39.367Z,1.90
2018-10-07T03:22:07.820Z,1.63
2018-10-07T03:24:36.076Z,1.50
2018-10-07T03:27:04.819Z,1.40
2018-10-07T03:29:33.239Z,2.30
2018-10-07T03:32:01.535Z,2.03
2018-10-07T03:34:29.840Z,1.30
2018-10-07T03:36:58.216Z,1.83
2018-10-07T03:39:26.602Z,1.67
2018-10-07T03:41:54.992Z,1.60
2018-10-07T03:44:23.441Z,1.33
2018-10-07T03:46:51.824Z,1.33
2018-10-07T03:49:20.228Z,1.07
2018-10-07T03:51:48.745Z,2.73
2018-10-07T03:54:17.083Z,1.30
2018-10-07T03:56:45.557Z,1.40
2018-10-07T03:59:13.943Z,1.63
2018-10-07T04:01:42.517Z,1.17
2018-10-07T04:04:10.965Z,1.10
2018-10-07T04:06:39.420Z,1.20
2018-10-07T04:09:10.226Z,2.63
2018-10-07T04:11:38.937Z,1.57
2018-10-07T04:14:08.874Z,2.30
2018-10-07T04:16:37.468Z,1.13
2018-10-07T04:19:06.221Z,1.10
2018-10-07T04:21:34.658Z,1.30
2018-10-07T04:24:04.217Z,1.30
2018-10-07T04:26:33.345Z,1.40
2018-10-07T04:29:02.036Z,1.40
2018-10-07T04:31:30.391Z,2.73
2018-10-07T04:33:58.763Z,1.57
2018-10-07T04:36:27.232Z,1.80
2018-10-07T04:38:55.953Z,1.60
2018-10-07T04:41:24.358Z,3.27
2018-10-07T04:43:53.483Z,1.50
2018-10-07T04:46:21.953Z,2.00
2018-10-07T04:48:50.272Z,1.97
2018-10-07T04:51:18.685Z,1.70
2018-10-07T04:53:47.020Z,3.37
2018-10-07T04:56:15.408Z,3.70
2018-10-07T04:58:43.764Z,3.40
2018-10-07T05:01:12.268Z,2.17
2018-10-07T05:03:40.673Z,2.53
2018-10-07T05:06:09.365Z,1.87
2018-10-07T05:08:37.927Z,1.83
2018-10-07T05:11:12.626Z,1.60
2018-10-07T05:13:49.776Z,1.63
2018-10-07T05:16:50.134Z,1.70
2018-10-07T05:19:18.696Z,1.60
2018-10-07T05:21:47.156Z,1.63
2018-10-07T05:24:15.582Z,1.70
2018-10-07T05:26:43.987Z,1.47
2018-10-07T05:29:12.388Z,1.80
2018-10-07T05:31:40.732Z,1.50
2018-10-07T05:34:09.161Z,1.80
2018-10-07T05:36:37.581Z,1.60
2018-10-07T05:39:09.670Z,1.70
2018-10-07T05:41:38.140Z,2.73
2018-10-07T05:44:06.555Z,1.57
2018-10-07T05:46:35.044Z,2.17
2018-10-07T05:49:03.608Z,4.53
2018-10-07T05:51:32.110Z,4.63
2018-10-07T05:54:00.571Z,2.83
2018-10-07T05:56:28.915Z,2.60
2018-10-07T05:58:58.326Z,1.70
2018-10-07T06:01:29.507Z,1.83
2018-10-07T06:04:31.304Z,1.70
2018-10-07T06:07:03.224Z,2.03
2018-10-07T06:09:33.284Z,2.07
2018-10-07T06:12:01.636Z,1.70
2018-10-07T06:14:41.605Z,3.30
2018-10-07T06:17:10.032Z,1.97
2018-10-07T06:19:38.446Z,3.00
2018-10-07T06:22:06.985Z,2.83
2018-10-07T06:24:35.741Z,1.93
2018-10-07T06:27:05.678Z,2.10
2018-10-07T06:29:34.047Z,3.20
2018-10-07T06:32:02.585Z,2.57
2018-10-07T06:34:31.033Z,2.03
2018-10-07T06:36:59.701Z,3.80
2018-10-07T06:39:28.172Z,2.47
2018-10-07T06:41:56.641Z,2.40
2018-10-07T06:44:25.129Z,2.50
2018-10-07T06:46:53.512Z,4.30
2018-10-07T06:49:21.775Z,2.97
2018-10-07T06:51:50.252Z,3.50
2018-10-07T06:54:18.698Z,4.87
2018-10-07T06:56:49.003Z,3.80
2018-10-07T06:59:17.325Z,2.80
2018-10-07T07:01:45.803Z,6.00
2018-10-07T07:04:14.224Z,3.13
2018-10-07T07:06:42.916Z,3.20
2018-10-07T07:09:12.001Z,3.50
2018-10-07T07:11:40.451Z,5.17
2018-10-07T07:14:17.355Z,6.27
2018-10-07T07:16:45.742Z,6.37
2018-10-07T07:19:14.137Z,8.57
2018-10-07T07:21:42.628Z,5.63
2018-10-07T07:24:11.035Z,6.20
2018-10-07T07:26:39.408Z,6.33
2018-10-07T07:29:07.772Z,5.63
2018-10-07T07:31:36.089Z,7.00
2018-10-07T07:34:04.522Z,9.33
2018-10-07T07:36:32.864Z,10.10
2018-10-07T07:39:01.264Z,12.17
2018-10-07T07:41:29.678Z,13.13
2018-10-07T07:43:58.095Z,13.53
2018-10-07T07:46:26.543Z,12.07
2018-10-07T07:48:55.467Z,10.87
2018-10-07T07:51:23.833Z,9.57
2018-10-07T07:53:52.241Z,9.13
2018-10-07T07:56:20.651Z,9.13
2018-10-07T07:58:48.951Z,8.47
2018-10-07T08:01:17.375Z,8.17
2018-10-07T08:03:45.799Z,8.53
2018-10-07T08:06:14.133Z,9.37
2018-10-07T08:08:42.627Z,7.77
2018-10-07T08:11:19.492Z,8.23
2018-10-07T08:13:47.893Z,9.10
2018-10-07T08:16:16.340Z,8.67
2018-10-07T08:18:44.680Z,8.40
2018-10-07T08:21:13.120Z,8.30
2018-10-07T08:23:41.502Z,8.10
2018-10-07T08:26:09.893Z,8.30
2018-10-07T08:28:38.261Z,8.90
2018-10-07T08:31:06.700Z,9.70
2018-10-07T08:33:35.371Z,8.90
2018-10-07T08:36:03.850Z,9.60
2018-10-07T08:38:32.407Z,8.90
2018-10-07T08:41:00.908Z,8.77
2018-10-07T08:43:29.241Z,8.80
2018-10-07T08:45:57.915Z,10.00
2018-10-07T08:48:26.322Z,10.63
2018-10-07T08:50:54.957Z,8.67
2018-10-07T08:53:23.419Z,10.07
2018-10-07T08:55:52.169Z,9.13
2018-10-07T08:58:20.583Z,7.60
2018-10-07T09:00:49.034Z,7.67
2018-10-07T09:03:17.479Z,7.93
2018-10-07T09:05:46.005Z,7.50
2018-10-07T09:08:14.626Z,7.53
2018-10-07T09:10:43.102Z,7.70
2018-10-07T09:13:11.480Z,7.37
2018-10-07T09:15:39.952Z,6.37
2018-10-07T09:18:08.388Z,6.67
2018-10-07T09:20:36.751Z,7.93
2018-10-07T09:23:05.184Z,8.20
2018-10-07T09:25:33.621Z,10.73
2018-10-07T09:28:02.112Z,8.23
2018-10-07T09:30:30.676Z,7.00
2018-10-07T09:32:59.146Z,6.30
2018-10-07T09:35:27.540Z,6.63
2018-10-07T09:37:55.905Z,5.70
2018-10-07T09:40:24.582Z,6.07
2018-10-07T09:42:53.001Z,6.43
2018-10-07T09:45:22.026Z,6.30
2018-10-07T09:47:50.777Z,4.97
2018-10-07T09:50:19.597Z,4.83
2018-10-07T09:52:48.005Z,5.70
2018-10-07T09:55:16.364Z,7.03
2018-10-07T09:57:44.712Z,7.07
2018-10-07T10:00:13.268Z,9.03
2018-10-07T10:02:41.625Z,7.40
2018-10-07T10:05:10.069Z,7.03
2018-10-07T10:07:39.291Z,6.53
2018-10-07T10:10:07.684Z,7.40
2018-10-07T10:12:36.108Z,7.47
2018-10-07T10:15:20.841Z,8.37
2018-10-07T10:17:54.632Z,7.13
2018-10-07T10:20:26.282Z,6.67
2018-10-07T10:23:03.519Z,6.97
2018-10-07T10:25:57.031Z,8.20
2018-10-07T10:28:33.407Z,6.53
2018-10-07T10:31:08.005Z,6.43
2018-10-07T10:33:40.077Z,12.60
2018-10-07T10:36:24.919Z,25.00
2018-10-07T10:39:01.371Z,10.10
2018-10-07T10:41:40.164Z,7.87
2018-10-07T10:44:20.504Z,6.27
2018-10-07T10:46:59.644Z,7.08
2018-10-07T10:49:36.383Z,6.62
2018-10-07T10:52:19.365Z,5.95
2018-10-07T10:55:59.046Z,4.72
2018-10-07T10:58:36.412Z,45.48
2018-10-07T11:01:14.971Z,8.88
2018-10-07T11:03:59.368Z,21.20
2018-10-07T11:07:36.708Z,5.22
2018-10-07T11:11:40.173Z,4.65
2018-10-07T11:15:32.661Z,6.42
2018-10-07T11:20:21.856Z,4.53
2018-10-07T11:22:58.279Z,17.65
2018-10-07T11:25:33.424Z,12.82
2018-10-07T11:28:27.553Z,26.10
2018-10-07T11:32:06.060Z,16.55
2018-10-07T11:34:46.889Z,18.60
2018-10-07T11:39:30.148Z,8.10
2018-10-07T11:42:08.372Z,9.93
2018-10-07T11:45:47.051Z,5.47
2018-10-07T11:49:19.611Z,13.57
2018-10-07T11:52:27.903Z,8.87
2018-10-07T11:54:57.327Z,5.77
2018-10-07T11:57:26.163Z,4.47
2018-10-07T11:59:54.677Z,4.63
2018-10-07T12:02:23.035Z,4.73
2018-10-07T12:04:51.589Z,5.57
2018-10-07T12:07:20.020Z,4.77
2018-10-07T12:09:48.336Z,5.27
2018-10-07T12:12:16.828Z,5.00
2018-10-07T12:15:13.890Z,5.70
2018-10-07T12:17:42.256Z,4.93
2018-10-07T12:20:10.640Z,4.00
2018-10-07T12:22:39.040Z,4.37
2018-10-07T12:25:07.491Z,4.20
2018-10-07T12:27:35.883Z,4.30
2018-10-07T12:30:04.339Z,4.77
2018-10-07T12:32:32.783Z,4.77
2018-10-07T12:35:01.246Z,4.40
2018-10-07T12:37:29.695Z,5.27
2018-10-07T12:39:58.089Z,6.07
2018-10-07T12:42:26.494Z,6.23
2018-10-07T12:44:54.878Z,5.87
2018-10-07T12:47:23.291Z,6.00
2018-10-07T12:49:51.611Z,5.60
2018-10-07T12:52:19.982Z,5.53
2018-10-07T12:54:48.372Z,5.07
2018-10-07T12:57:16.839Z,6.03
2018-10-07T12:59:45.121Z,6.77
2018-10-07T13:02:13.451Z,5.53
2018-10-07T13:04:41.892Z,4.83
2018-10-07T13:07:10.265Z,6.50
2018-10-07T13:09:38.567Z,4.70
2018-10-07T13:12:06.892Z,5.20
2018-10-07T13:17:54.829Z,6.00
2018-10-07T13:20:23.227Z,5.93
2018-10-07T13:22:51.592Z,5.60
2018-10-07T13:25:20.248Z,4.93
2018-10-07T13:27:48.657Z,4.83
2018-10-07T13:30:17.124Z,4.97
2018-10-07T13:32:45.604Z,4.73
2018-10-07T13:35:14.119Z,5.77
2018-10-07T13:37:42.573Z,5.63
2018-10-07T13:40:10.912Z,4.80
2018-10-07T13:42:39.271Z,6.00
2018-10-07T13:45:07.685Z,5.80
2018-10-07T13:47:35.988Z,4.53
2018-10-07T13:50:04.581Z,4.83
2018-10-07T13:52:32.956Z,6.47
2018-10-07T13:55:01.333Z,5.10
2018-10-07T13:57:29.663Z,5.57
2018-10-07T13:59:58.063Z,4.87
2018-10-07T14:02:26.516Z,4.40
2018-10-07T14:04:54.880Z,4.40
2018-10-07T14:07:23.324Z,4.60
2018-10-07T14:09:51.746Z,5.87
2018-10-07T14:12:20.037Z,4.30
2018-10-07T14:15:30.321Z,4.60
2018-10-07T14:17:58.731Z,4.93
2018-10-07T14:20:27.210Z,4.73
2018-10-07T14:22:55.571Z,4.10
2018-10-07T14:25:24.059Z,4.40
2018-10-07T14:27:52.441Z,4.57
2018-10-07T14:30:21.269Z,4.07
2018-10-07T14:32:49.656Z,4.17
2018-10-07T14:35:18.094Z,4.33
2018-10-07T14:37:46.468Z,4.37
2018-10-07T14:40:14.995Z,5.20
2018-10-07T14:42:43.506Z,3.40
2018-10-07T14:45:11.919Z,3.27
2018-10-07T14:47:40.339Z,3.67
2018-10-07T14:50:08.651Z,3.30
2018-10-07T14:52:37.042Z,6.87
2018-10-07T14:55:05.649Z,3.87
2018-10-07T14:57:33.899Z,3.43
2018-10-07T15:00:02.333Z,3.83
2018-10-07T15:02:30.656Z,3.17
2018-10-07T15:04:59.040Z,3.33
2018-10-07T15:07:27.504Z,3.50
2018-10-07T15:09:56.008Z,4.00
2018-10-07T15:12:24.412Z,3.47
2018-10-07T15:15:27.544Z,3.70
2018-10-07T15:17:55.895Z,3.50
2018-10-07T15:20:24.252Z,4.50
2018-10-07T15:22:52.684Z,4.03
2018-10-07T15:25:21.404Z,3.90
2018-10-07T15:27:49.795Z,4.17
2018-10-07T15:30:18.291Z,3.80
2018-10-07T15:32:46.615Z,4.27
2018-10-07T15:35:15.148Z,4.60
2018-10-07T15:37:43.525Z,5.07
2018-10-07T15:40:11.893Z,4.30
2018-10-07T15:42:40.226Z,4.57
2018-10-07T15:45:08.644Z,4.27
2018-10-07T15:47:36.971Z,30.57
2018-10-07T15:50:05.593Z,13.90
2018-10-07T15:52:34.197Z,6.47
2018-10-07T15:55:02.615Z,6.87
2018-10-07T15:57:31.068Z,5.27
2018-10-07T15:59:59.531Z,5.17
2018-10-07T16:02:27.997Z,6.93
2018-10-07T16:04:56.500Z,8.83
2018-10-07T16:07:24.939Z,11.47
2018-10-07T16:09:53.343Z,14.37
2018-10-07T16:12:21.839Z,14.83
2018-10-07T16:15:32.904Z,13.37
2018-10-07T16:18:01.431Z,13.37
2018-10-07T16:20:30.115Z,11.17
2018-10-07T16:22:58.932Z,11.50
2018-10-07T16:25:27.956Z,14.23
2018-10-07T16:27:57.112Z,17.10
2018-10-07T16:30:26.165Z,12.80
2018-10-07T16:32:55.350Z,9.63
2018-10-07T16:35:24.817Z,8.43
2018-10-07T16:37:54.052Z,10.73
2018-10-07T16:40:23.564Z,9.53
2018-10-07T16:42:53.579Z,8.33
2018-10-07T16:45:22.809Z,6.47
2018-10-07T16:47:51.875Z,6.90
2018-10-07T16:50:21.414Z,6.40
2018-10-07T16:52:50.786Z,5.90
2018-10-07T16:55:20.302Z,6.87
2018-10-07T16:57:49.471Z,6.87
2018-10-07T17:00:18.681Z,7.00
2018-10-07T17:02:48.706Z,6.70
2018-10-07T17:05:18.264Z,7.77
2018-10-07T17:07:47.613Z,8.97
2018-10-07T17:10:16.775Z,6.03
2018-10-07T17:12:45.941Z,6.20
2018-10-07T17:16:05.151Z,6.30
2018-10-07T17:18:34.338Z,8.27
2018-10-07T17:21:03.692Z,7.17
2018-10-07T17:23:32.716Z,6.70
2018-10-07T17:26:01.832Z,6.03
2018-10-07T17:28:30.853Z,8.30
2018-10-07T17:31:00.309Z,7.47
2018-10-07T17:33:29.582Z,7.93
2018-10-07T17:35:59.300Z,9.17
2018-10-07T17:38:28.352Z,8.27
2018-10-07T17:40:57.820Z,7.43
2018-10-07T17:43:26.872Z,6.80
2018-10-07T17:45:56.052Z,6.90
2018-10-07T17:48:25.783Z,7.03
2018-10-07T17:50:54.909Z,6.70
2018-10-07T17:53:24.107Z,6.37
2018-10-07T17:55:53.335Z,6.40
2018-10-07T17:58:22.555Z,6.13
2018-10-07T18:00:51.715Z,6.17
2018-10-07T18:03:20.843Z,5.47
2018-10-07T18:05:49.964Z,5.37
2018-10-07T18:08:19.112Z,6.37
2018-10-07T18:10:48.330Z,6.63
2018-10-07T18:13:17.519Z,5.97
2018-10-07T18:19:09.529Z,5.67
2018-10-07T18:21:39.308Z,5.57
2018-10-07T18:24:09.292Z,7.10
2018-10-07T18:26:39.913Z,6.00
2018-10-07T18:29:10.230Z,7.77
2018-10-07T18:31:40.368Z,7.00
2018-10-07T18:34:10.447Z,8.80
2018-10-07T18:36:40.796Z,7.97
2018-10-07T18:39:10.708Z,6.83
2018-10-07T18:41:41.150Z,6.90
2018-10-07T18:44:10.356Z,8.07
2018-10-07T18:46:39.504Z,7.07
2018-10-07T18:49:08.700Z,7.77
2018-10-07T18:51:37.707Z,5.63
2018-10-07T18:54:06.902Z,5.67
2018-10-07T18:56:36.057Z,5.77
2018-10-07T18:59:05.255Z,5.73
2018-10-07T19:01:34.472Z,5.83
2018-10-07T19:04:03.664Z,6.20
2018-10-07T19:06:32.702Z,5.10
2018-10-07T19:09:01.585Z,5.43
2018-10-07T19:11:30.159Z,5.90
2018-10-07T19:13:59.079Z,5.60
2018-10-07T19:16:53.376Z,6.23
2018-10-07T19:19:21.958Z,5.90
2018-10-07T19:21:50.552Z,8.07
2018-10-07T19:24:18.939Z,5.73
2018-10-07T19:26:47.364Z,6.50
2018-10-07T19:29:15.859Z,6.57
2018-10-07T19:31:44.359Z,8.27
2018-10-07T19:34:12.795Z,5.63
2018-10-07T19:36:41.323Z,7.20
2018-10-07T19:39:10.863Z,5.57
2018-10-07T19:41:39.628Z,5.57
2018-10-07T19:44:08.147Z,6.00
2018-10-07T19:46:36.871Z,6.23
2018-10-07T19:49:05.719Z,6.20
2018-10-07T19:51:34.690Z,7.50
2018-10-07T19:54:03.796Z,5.13
2018-10-07T19:56:32.812Z,6.73
2018-10-07T19:59:01.886Z,5.53
2018-10-07T20:01:30.980Z,5.47
2018-10-07T20:03:59.883Z,5.00
2018-10-07T20:06:28.835Z,5.73
2018-10-07T20:08:58.376Z,5.17
2018-10-07T20:11:27.264Z,4.80
2018-10-07T20:13:56.594Z,7.27
2018-10-07T20:16:52.159Z,6.33
2018-10-07T20:19:20.659Z,5.10
2018-10-07T20:21:49.137Z,8.33
2018-10-07T20:24:17.683Z,7.07
2018-10-07T20:30:08.580Z,4.63
2018-10-07T20:32:36.999Z,4.43
2018-10-07T20:35:05.315Z,6.40
2018-10-07T20:37:33.744Z,5.30
2018-10-07T20:40:02.137Z,5.63
2018-10-07T20:42:30.480Z,5.27
2018-10-07T20:44:58.941Z,4.53
2018-10-07T20:47:27.464Z,5.20
2018-10-07T20:49:55.815Z,6.43
2018-10-07T20:52:24.207Z,7.00
2018-10-07T20:54:52.712Z,4.80
2018-10-07T20:57:21.079Z,5.10
2018-10-07T20:59:49.578Z,5.30
2018-10-07T21:02:18.007Z,5.20
2018-10-07T21:04:46.345Z,5.60
2018-10-07T21:07:14.731Z,15.03
2018-10-07T21:09:43.332Z,33.27
2018-10-07T21:12:11.773Z,29.87
2018-10-07T21:15:17.677Z,19.90
2018-10-07T21:17:46.082Z,8.90
2018-10-07T21:20:14.439Z,6.53
2018-10-07T21:22:43.011Z,5.63
2018-10-07T21:25:11.432Z,7.03
2018-10-07T21:27:39.723Z,5.67
2018-10-07T21:30:08.252Z,5.43
2018-10-07T21:32:36.655Z,6.27
2018-10-07T21:35:04.968Z,5.37
2018-10-07T21:37:33.572Z,5.10
2018-10-07T21:40:01.956Z,5.70
2018-10-07T21:42:30.386Z,4.90
2018-10-07T21:44:58.809Z,5.07
2018-10-07T21:47:27.228Z,5.90
2018-10-07T21:49:55.648Z,5.53
2018-10-07T21:52:24.122Z,5.77
2018-10-07T21:54:52.624Z,5.20
2018-10-07T21:57:21.067Z,5.00
2018-10-07T21:59:49.416Z,5.10
2018-10-07T22:02:17.887Z,5.63
2018-10-07T22:04:46.467Z,5.57
2018-10-07T22:07:14.999Z,5.40
2018-10-07T22:09:43.438Z,5.90
2018-10-07T22:12:11.810Z,5.70
2018-10-07T22:14:40.180Z,7.63
2018-10-07T22:17:08.762Z,6.00
2018-10-07T22:19:37.287Z,5.20
2018-10-07T22:22:06.022Z,5.87
2018-10-07T22:24:34.480Z,5.53
2018-10-07T22:27:02.980Z,6.73
2018-10-07T22:29:31.444Z,5.70
2018-10-07T22:31:59.804Z,5.93
2018-10-07T22:34:28.187Z,7.17
2018-10-07T22:36:56.536Z,6.40
2018-10-07T22:39:24.872Z,5.50
2018-10-07T22:41:53.211Z,5.53
2018-10-07T22:44:21.685Z,6.07
2018-10-07T22:46:50.103Z,5.90
2018-10-07T22:49:18.442Z,5.80
2018-10-07T22:51:46.802Z,7.27
2018-10-07T22:54:15.104Z,7.83
2018-10-07T22:56:43.544Z,6.40
2018-10-07T22:59:12.022Z,5.27
2018-10-07T23:01:40.444Z,6.07
2018-10-07T23:04:08.976Z,5.63
2018-10-07T23:06:37.355Z,5.70
2018-10-07T23:09:08.711Z,7.50
2018-10-07T23:11:37.073Z,5.87
2018-10-07T23:14:05.549Z,5.37
2018-10-07T23:16:34.043Z,5.53
2018-10-07T23:19:02.360Z,6.13
2018-10-07T23:21:30.717Z,5.40
2018-10-07T23:23:59.535Z,5.63
2018-10-07T23:26:27.903Z,7.07
2018-10-07T23:28:56.875Z,5.23
2018-10-07T23:31:25.417Z,5.80
2018-10-07T23:33:53.985Z,5.07
2018-10-07T23:36:22.442Z,5.93
2018-10-07T23:38:50.835Z,6.50
2018-10-07T23:41:19.352Z,5.93
2018-10-07T23:43:47.725Z,5.47
2018-10-07T23:46:16.085Z,5.53
2018-10-07T23:48:44.404Z,5.40
2018-10-07T23:51:19.532Z,6.10
2018-10-07T23:53:47.795Z,5.60
2018-10-07T23:56:16.171Z,5.43
2018-10-07T23:58:44.576Z,6.53
